Terminal Aerodrome Forecast
Issued by NWS

Home | Current Version | Previous Version | Text Only | Print | Product List | Glossary On
Versions: 1 2 3 4 5 6 7 8 9 10 11 12 13 14 15 16 17 18 19 20 21 22 23 24 25 26 27 28 29 30
000
FTUS44 KLZK 271135
TAFADF
TAF
KADF 271135Z 2712/2812 22010KT P6SM OVC015
      TEMPO 2712/2716 4SM BR
     FM271800 20010G18KT P6SM SCT025 BKN050
     FM280000 19008KT P6SM OVC050
     FM280800 VRB06KT P6SM VCTS SCT025 OVC050CB
      TEMPO 2808/2812 VRB20G40KT 2SM TSRA BR OVC010CB=

USA.gov is the U.S. government's official web portal to all federal, state and local government web resources and services.